Time;durP1;ratioP1;P1;durP2;ratioP2;P2;SDS_P1;SDS_P2;PMS_P1;PMS_P2;Temp;Humidity;BMP_temperature;BMP_pressure;BME280_temperature;BME280_humidity;BME280_pressure;Samples;Min_cycle;Max_cycle;Signal;HPM_P1;HPM_P2
2021/08/25 00:02:09;;;;;;;16.95;9.00;;;;;;;;;;4972894;28;20034;-79
2021/08/25 00:04:39;;;;;;;17.63;9.13;;;;;;;;;;4969237;28;20041;-79
2021/08/25 00:07:09;;;;;;;17.73;9.55;;;;;;;;;;4971310;28;20526;-78
2021/08/25 00:09:35;;;;;;;15.73;9.68;;;;;;;;;;4970173;28;20089;-78
2021/08/25 00:12:01;;;;;;;16.33;9.35;;;;;;;;;;4975051;28;20026;-79
2021/08/25 00:14:27;;;;;;;20.45;9.63;;;;;;;;;;4974027;28;20077;-79
2021/08/25 00:16:53;;;;;;;17.27;9.38;;;;;;;;;;4967425;28;20110;-78
2021/08/25 00:19:18;;;;;;;15.38;9.13;;;;;;;;;;4975216;28;20122;-79
2021/08/25 00:21:44;;;;;;;17.77;9.48;;;;;;;;;;4974181;28;20037;-79
2021/08/25 00:24:09;;;;;;;17.35;10.02;;;;;;;;;;4975654;28;20051;-79
2021/08/25 00:26:35;;;;;;;17.67;9.57;;;;;;;;;;4969028;28;20443;-78
2021/08/25 00:29:00;;;;;;;24.50;9.70;;;;;;;;;;4967439;28;20042;-79
2021/08/25 00:31:25;;;;;;;23.83;10.93;;;;;;;;;;4975295;28;20035;-78
2021/08/25 00:33:51;;;;;;;18.08;9.77;;;;;;;;;;4971592;28;20115;-79
2021/08/25 00:36:16;;;;;;;16.48;10.10;;;;;;;;;;4962692;28;20110;-78
2021/08/25 00:38:42;;;;;;;16.70;9.25;;;;;;;;;;4969017;28;20518;-78
2021/08/25 00:41:07;;;;;;;19.15;9.57;;;;;;;;;;4975346;28;20043;-78
2021/08/25 00:43:33;;;;;;;17.02;9.10;;;;;;;;;;4976438;28;20027;-78
2021/08/25 00:45:58;;;;;;;16.45;9.35;;;;;;;;;;4961969;28;20035;-78
2021/08/25 00:48:24;;;;;;;17.92;9.77;;;;;;;;;;4962944;28;20082;-78
2021/08/25 00:50:50;;;;;;;17.25;9.55;;;;;;;;;;4978281;28;20023;-78
2021/08/25 00:53:18;;;;;;;20.90;10.05;;;;;;;;;;4969947;28;20041;-78
2021/08/25 00:55:44;;;;;;;19.80;10.50;;;;;;;;;;4971763;28;20038;-78
2021/08/25 00:58:10;;;;;;;17.08;10.70;;;;;;;;;;4960573;28;20089;-78
2021/08/25 01:00:43;;;;;;;18.42;10.85;;;;;;;;;;4962621;28;20078;-78
2021/08/25 01:03:27;;;;;;;22.00;10.73;;;;;;;;;;4967217;28;20113;-79
2021/08/25 01:05:55;;;;;;;22.73;11.43;;;;;;;;;;4962828;28;20113;-78
2021/08/25 01:08:21;;;;;;;20.85;10.63;;;;;;;;;;4964051;28;20609;-78
2021/08/25 01:10:46;;;;;;;20.10;10.68;;;;;;;;;;4968161;28;20034;-78
2021/08/25 01:13:12;;;;;;;19.80;10.52;;;;;;;;;;4971513;28;20027;-78
2021/08/25 01:15:43;;;;;;;17.42;10.95;;;;;;;;;;4963222;28;20070;-78
2021/08/25 01:18:17;;;;;;;21.67;10.65;;;;;;;;;;4963757;28;20663;-79
2021/08/25 01:20:46;;;;;;;19.98;10.77;;;;;;;;;;4962787;28;20125;-79
2021/08/25 01:23:12;;;;;;;17.33;10.90;;;;;;;;;;4966433;28;20539;-79
2021/08/25 01:25:38;;;;;;;18.42;10.02;;;;;;;;;;4970461;28;20581;-79
2021/08/25 01:28:06;;;;;;;20.45;11.07;;;;;;;;;;4964685;28;20042;-78
2021/08/25 01:30:35;;;;;;;22.70;12.32;;;;;;;;;;4972230;28;20048;-79
2021/08/25 01:33:01;;;;;;;20.13;10.82;;;;;;;;;;4971046;28;20026;-78
2021/08/25 01:35:38;;;;;;;19.17;10.95;;;;;;;;;;4966768;28;20042;-79
2021/08/25 01:38:05;;;;;;;18.60;11.48;;;;;;;;;;4967255;28;20035;-79
2021/08/25 01:40:35;;;;;;;18.67;10.55;;;;;;;;;;4971012;28;20395;-78
2021/08/25 01:43:02;;;;;;;23.08;11.20;;;;;;;;;;4972218;28;20031;-79
2021/08/25 01:45:28;;;;;;;23.17;11.70;;;;;;;;;;4968053;28;20571;-79
2021/08/25 01:47:53;;;;;;;19.08;10.77;;;;;;;;;;4978826;28;20039;-79
2021/08/25 01:50:20;;;;;;;18.02;10.60;;;;;;;;;;4957218;28;20034;-79
2021/08/25 01:52:45;;;;;;;19.92;11.10;;;;;;;;;;4967387;28;20034;-79
2021/08/25 01:55:11;;;;;;;18.00;10.48;;;;;;;;;;4968829;28;20507;-79
2021/08/25 01:57:36;;;;;;;19.10;10.52;;;;;;;;;;4970993;28;20038;-79
2021/08/25 02:00:04;;;;;;;17.00;9.88;;;;;;;;;;4972766;28;20030;-79
2021/08/25 02:02:30;;;;;;;20.27;10.38;;;;;;;;;;4965445;28;20031;-79
2021/08/25 02:04:55;;;;;;;19.48;10.43;;;;;;;;;;4964149;28;20041;-79
2021/08/25 02:07:21;;;;;;;18.33;10.13;;;;;;;;;;4966112;28;20062;-79
2021/08/25 02:09:46;;;;;;;17.48;10.43;;;;;;;;;;4965753;28;20073;-79
2021/08/25 02:12:12;;;;;;;23.77;10.80;;;;;;;;;;4988329;28;20035;-79
2021/08/25 02:14:37;;;;;;;22.45;10.90;;;;;;;;;;4966447;28;20042;-78
2021/08/25 02:17:06;;;;;;;21.42;11.40;;;;;;;;;;4949710;28;20042;-79
2021/08/25 02:19:31;;;;;;;20.88;10.98;;;;;;;;;;4972093;28;20027;-79
2021/08/25 02:21:57;;;;;;;21.85;10.65;;;;;;;;;;4972975;28;20031;-78
2021/08/25 02:24:22;;;;;;;18.55;11.73;;;;;;;;;;4964004;28;20523;-79
2021/08/25 02:26:47;;;;;;;24.25;12.13;;;;;;;;;;4951946;28;20601;-79
2021/08/25 02:29:13;;;;;;;18.27;10.48;;;;;;;;;;4959769;28;20042;-79
2021/08/25 02:31:38;;;;;;;19.92;10.90;;;;;;;;;;4975672;28;20511;-79
2021/08/25 02:34:04;;;;;;;18.50;11.20;;;;;;;;;;4973471;28;20058;-79
2021/08/25 02:36:29;;;;;;;21.23;10.32;;;;;;;;;;4977004;28;20620;-79
2021/08/25 02:38:55;;;;;;;21.38;12.15;;;;;;;;;;4955871;28;20042;-78
2021/08/25 02:41:21;;;;;;;18.80;10.57;;;;;;;;;;4965643;28;20037;-78
2021/08/25 02:43:46;;;;;;;18.10;10.52;;;;;;;;;;4950533;28;20035;-78
2021/08/25 02:46:12;;;;;;;24.85;10.57;;;;;;;;;;4970621;28;20507;-78
2021/08/25 02:48:39;;;;;;;20.73;10.82;;;;;;;;;;4964184;28;20041;-78
2021/08/25 02:51:04;;;;;;;21.23;11.52;;;;;;;;;;4965434;28;20410;-79
2021/08/25 02:53:30;;;;;;;20.20;10.20;;;;;;;;;;4968661;28;20045;-78
2021/08/25 02:55:55;;;;;;;18.33;10.75;;;;;;;;;;4989570;28;20062;-78
2021/08/25 02:58:21;;;;;;;19.10;11.05;;;;;;;;;;4966992;28;20432;-79
2021/08/25 03:00:46;;;;;;;16.80;10.20;;;;;;;;;;4970677;28;20022;-79
2021/08/25 03:03:12;;;;;;;21.60;11.32;;;;;;;;;;4966972;28;20034;-79
2021/08/25 03:05:37;;;;;;;24.55;11.13;;;;;;;;;;4967071;28;20161;-79
2021/08/25 03:08:03;;;;;;;18.88;11.60;;;;;;;;;;4971941;28;20030;-79
2021/08/25 03:10:29;;;;;;;20.30;11.55;;;;;;;;;;4965314;28;20089;-79
2021/08/25 03:12:54;;;;;;;22.08;11.02;;;;;;;;;;4971093;28;20682;-79
2021/08/25 03:15:20;;;;;;;26.65;11.85;;;;;;;;;;4968099;28;20022;-79
2021/08/25 03:17:45;;;;;;;26.00;12.45;;;;;;;;;;4972137;28;20142;-80
2021/08/25 03:20:12;;;;;;;21.95;12.45;;;;;;;;;;4967412;28;20022;-79
2021/08/25 03:22:39;;;;;;;23.25;13.25;;;;;;;;;;4966569;28;20034;-78
2021/08/25 03:25:06;;;;;;;24.63;12.30;;;;;;;;;;4967753;28;20047;-79
2021/08/25 03:27:32;;;;;;;19.17;11.65;;;;;;;;;;4960019;28;20046;-79
2021/08/25 03:29:58;;;;;;;23.58;12.15;;;;;;;;;;4960036;28;20042;-78
2021/08/25 03:32:24;;;;;;;22.25;11.98;;;;;;;;;;4965633;28;20458;-79
2021/08/25 03:34:49;;;;;;;24.55;12.38;;;;;;;;;;4965984;28;20065;-79
2021/08/25 03:37:15;;;;;;;24.45;12.55;;;;;;;;;;4969947;28;20010;-79
2021/08/25 03:39:40;;;;;;;22.90;12.65;;;;;;;;;;4980276;28;20046;-78
2021/08/25 03:42:08;;;;;;;25.05;12.57;;;;;;;;;;4967771;28;20031;-78
2021/08/25 03:44:37;;;;;;;24.73;12.80;;;;;;;;;;4971031;28;20034;-78
2021/08/25 03:47:06;;;;;;;20.60;11.90;;;;;;;;;;4961752;28;20026;-78
2021/08/25 03:49:32;;;;;;;21.80;12.07;;;;;;;;;;4980191;28;20541;-79
2021/08/25 03:51:58;;;;;;;24.95;12.52;;;;;;;;;;4973936;28;20050;-78
2021/08/25 03:54:24;;;;;;;21.67;11.98;;;;;;;;;;4969755;28;20061;-78
2021/08/25 03:56:49;;;;;;;28.80;13.48;;;;;;;;;;4972603;28;20503;-78
2021/08/25 03:59:15;;;;;;;29.75;13.30;;;;;;;;;;4967101;28;20026;-78
2021/08/25 04:01:41;;;;;;;27.77;15.48;;;;;;;;;;4967048;28;20085;-78
2021/08/25 04:04:08;;;;;;;28.33;13.90;;;;;;;;;;4969215;28;20035;-78
2021/08/25 04:06:35;;;;;;;25.13;13.80;;;;;;;;;;4980514;28;20030;-78
2021/08/25 04:09:01;;;;;;;25.48;13.00;;;;;;;;;;4973598;28;20110;-78
2021/08/25 04:11:27;;;;;;;32.28;14.80;;;;;;;;;;4961109;28;20101;-78
2021/08/25 04:13:52;;;;;;;31.05;15.57;;;;;;;;;;4970476;28;20030;-78
2021/08/25 04:16:17;;;;;;;27.70;14.35;;;;;;;;;;4987306;28;20034;-79
2021/08/25 04:18:43;;;;;;;26.77;14.23;;;;;;;;;;4969725;28;20038;-79
2021/08/25 04:21:08;;;;;;;29.50;14.82;;;;;;;;;;4962413;28;20038;-79
2021/08/25 04:23:34;;;;;;;27.17;14.27;;;;;;;;;;4956134;28;20051;-79
2021/08/25 04:25:59;;;;;;;28.10;13.70;;;;;;;;;;4969792;28;20053;-79
2021/08/25 04:28:25;;;;;;;33.10;13.88;;;;;;;;;;4959879;28;20758;-79
2021/08/25 04:30:51;;;;;;;28.58;13.93;;;;;;;;;;4969960;28;20570;-79
2021/08/25 04:33:17;;;;;;;28.70;13.88;;;;;;;;;;4969147;28;20035;-80
2021/08/25 04:35:42;;;;;;;25.85;13.48;;;;;;;;;;4974108;28;20495;-79
2021/08/25 04:38:07;;;;;;;29.08;13.23;;;;;;;;;;4967551;28;20109;-79
2021/08/25 04:40:33;;;;;;;23.08;12.15;;;;;;;;;;4953602;28;20429;-79
2021/08/25 04:43:00;;;;;;;28.00;12.55;;;;;;;;;;4983126;28;20057;-78
2021/08/25 04:45:26;;;;;;;26.45;12.18;;;;;;;;;;4965888;28;20151;-78
2021/08/25 04:47:51;;;;;;;25.15;12.20;;;;;;;;;;4969801;28;20607;-78
2021/08/25 04:50:17;;;;;;;21.42;11.25;;;;;;;;;;4968516;28;20095;-78
2021/08/25 04:52:42;;;;;;;23.27;11.48;;;;;;;;;;4967689;28;20031;-78
2021/08/25 04:55:08;;;;;;;21.70;10.95;;;;;;;;;;4970869;28;20066;-78
2021/08/25 04:57:34;;;;;;;19.17;10.93;;;;;;;;;;4975408;28;20038;-79
2021/08/25 04:59:59;;;;;;;25.60;12.60;;;;;;;;;;4970923;28;20041;-78
2021/08/25 05:02:25;;;;;;;23.33;10.45;;;;;;;;;;4975604;28;20039;-79
2021/08/25 05:04:50;;;;;;;21.38;11.95;;;;;;;;;;4977002;28;20427;-78
2021/08/25 05:07:16;;;;;;;32.78;12.80;;;;;;;;;;4976985;28;20049;-78
2021/08/25 05:09:41;;;;;;;25.70;12.27;;;;;;;;;;4966576;28;20098;-78
2021/08/25 05:12:07;;;;;;;24.77;12.48;;;;;;;;;;4973583;28;20080;-78
2021/08/25 05:14:34;;;;;;;30.20;12.88;;;;;;;;;;4964446;28;20512;-77
2021/08/25 05:17:01;;;;;;;28.27;14.30;;;;;;;;;;4966985;28;20031;-78
2021/08/25 05:19:26;;;;;;;30.30;13.40;;;;;;;;;;4972685;28;20019;-78
2021/08/25 05:21:52;;;;;;;30.05;13.77;;;;;;;;;;4972235;28;20516;-77
2021/08/25 05:24:17;;;;;;;29.00;14.30;;;;;;;;;;4964984;28;20078;-78
2021/08/25 05:26:43;;;;;;;36.80;15.05;;;;;;;;;;4966368;28;20039;-78
2021/08/25 05:29:08;;;;;;;35.28;13.07;;;;;;;;;;4968305;28;20050;-78
2021/08/25 05:31:34;;;;;;;39.08;17.00;;;;;;;;;;4966377;28;20038;-78
2021/08/25 05:34:01;;;;;;;43.80;17.85;;;;;;;;;;4970158;28;20051;-78
2021/08/25 05:36:26;;;;;;;42.95;16.95;;;;;;;;;;4993728;28;20061;-77
2021/08/25 05:38:52;;;;;;;45.15;17.33;;;;;;;;;;4967280;28;20493;-78
2021/08/25 05:41:17;;;;;;;49.90;17.42;;;;;;;;;;4976253;28;20437;-77
2021/08/25 05:43:43;;;;;;;40.90;15.57;;;;;;;;;;4981413;28;20043;-77
2021/08/25 05:46:08;;;;;;;47.08;16.13;;;;;;;;;;4952464;28;20049;-78
2021/08/25 05:48:34;;;;;;;54.25;16.80;;;;;;;;;;4971215;28;20396;-78
2021/08/25 05:50:59;;;;;;;45.83;15.82;;;;;;;;;;4970835;28;20034;-78
2021/08/25 05:53:25;;;;;;;47.95;16.60;;;;;;;;;;4971913;28;20496;-77
2021/08/25 05:55:51;;;;;;;43.28;16.67;;;;;;;;;;4971536;28;20035;-78
2021/08/25 05:58:16;;;;;;;41.20;16.35;;;;;;;;;;4957117;28;20034;-78
2021/08/25 06:00:42;;;;;;;42.95;16.40;;;;;;;;;;4965000;28;20058;-78
2021/08/25 06:03:07;;;;;;;39.80;16.08;;;;;;;;;;4956067;28;20091;-78
2021/08/25 06:05:32;;;;;;;39.90;15.30;;;;;;;;;;4953691;28;20719;-78
2021/08/25 06:07:58;;;;;;;42.67;14.98;;;;;;;;;;4969202;28;20407;-78
2021/08/25 06:10:24;;;;;;;33.85;14.38;;;;;;;;;;4966863;28;20038;-78
2021/08/25 06:12:49;;;;;;;33.75;14.65;;;;;;;;;;4965798;28;20110;-78
2021/08/25 06:15:15;;;;;;;31.98;14.07;;;;;;;;;;4967126;28;20788;-78
2021/08/25 06:17:40;;;;;;;32.65;14.57;;;;;;;;;;4964043;28;20070;-78
2021/08/25 06:20:06;;;;;;;34.67;14.95;;;;;;;;;;4951049;28;20034;-78
2021/08/25 06:22:32;;;;;;;36.75;13.85;;;;;;;;;;4968742;28;20030;-78
2021/08/25 06:24:57;;;;;;;33.10;14.20;;;;;;;;;;4970728;28;20054;-78
2021/08/25 06:27:24;;;;;;;33.88;13.93;;;;;;;;;;4972971;28;20045;-78
2021/08/25 06:29:49;;;;;;;32.80;14.15;;;;;;;;;;4968867;28;20408;-78
2021/08/25 06:32:15;;;;;;;37.67;14.63;;;;;;;;;;4961438;28;20026;-78
2021/08/25 06:34:40;;;;;;;38.58;14.55;;;;;;;;;;4970745;28;20030;-78
2021/08/25 06:37:06;;;;;;;38.42;14.80;;;;;;;;;;4967236;28;20706;-78
2021/08/25 06:39:32;;;;;;;33.70;14.95;;;;;;;;;;4949801;28;20043;-78
2021/08/25 06:41:58;;;;;;;32.45;15.70;;;;;;;;;;4959959;28;20464;-78
2021/08/25 06:44:23;;;;;;;35.83;13.93;;;;;;;;;;4964036;28;20030;-78
2021/08/25 06:46:49;;;;;;;35.42;15.13;;;;;;;;;;4959238;28;20106;-78
2021/08/25 06:49:14;;;;;;;36.35;15.68;;;;;;;;;;4986397;28;20042;-78
2021/08/25 06:51:39;;;;;;;39.72;15.32;;;;;;;;;;4967291;28;20047;-78
2021/08/25 06:54:05;;;;;;;38.85;15.45;;;;;;;;;;4970801;28;20097;-78
2021/08/25 06:56:30;;;;;;;38.33;14.93;;;;;;;;;;4960403;28;20035;-78
2021/08/25 06:58:56;;;;;;;42.47;15.40;;;;;;;;;;4962837;28;20030;-77
2021/08/25 07:01:21;;;;;;;36.75;14.45;;;;;;;;;;4971333;28;20038;-78
2021/08/25 07:03:47;;;;;;;48.83;15.13;;;;;;;;;;4964160;28;20035;-78
2021/08/25 07:06:13;;;;;;;38.28;15.00;;;;;;;;;;4958891;28;20062;-78
2021/08/25 07:08:38;;;;;;;39.10;15.85;;;;;;;;;;4964705;28;20038;-78
2021/08/25 07:11:04;;;;;;;40.60;16.33;;;;;;;;;;4972169;28;20040;-78
2021/08/25 07:13:30;;;;;;;39.92;16.55;;;;;;;;;;4972660;28;20022;-78
2021/08/25 07:15:55;;;;;;;39.92;16.85;;;;;;;;;;4969234;28;20033;-78
2021/08/25 07:18:21;;;;;;;42.67;15.70;;;;;;;;;;4958088;28;20042;-78
2021/08/25 07:20:46;;;;;;;46.63;17.38;;;;;;;;;;4965679;28;20054;-78
2021/08/25 07:23:12;;;;;;;40.35;16.52;;;;;;;;;;4960668;28;20125;-78
2021/08/25 07:25:37;;;;;;;45.22;16.80;;;;;;;;;;4965956;28;20113;-78
2021/08/25 07:28:03;;;;;;;43.58;17.65;;;;;;;;;;4977538;28;20038;-78
2021/08/25 07:30:29;;;;;;;42.35;15.55;;;;;;;;;;4967214;28;20424;-78
2021/08/25 07:32:54;;;;;;;42.13;16.98;;;;;;;;;;4963821;28;20039;-78
2021/08/25 07:35:19;;;;;;;43.83;16.90;;;;;;;;;;4964440;28;20038;-78
2021/08/25 07:37:45;;;;;;;42.80;15.93;;;;;;;;;;4966556;28;20054;-78
2021/08/25 07:40:11;;;;;;;45.58;17.45;;;;;;;;;;4964179;28;20491;-78
2021/08/25 07:42:36;;;;;;;42.63;17.02;;;;;;;;;;4958860;28;20037;-79
2021/08/25 07:45:04;;;;;;;39.53;16.98;;;;;;;;;;4976471;28;20526;-78
2021/08/25 07:47:29;;;;;;;37.30;15.98;;;;;;;;;;4967090;28;20031;-78
2021/08/25 07:49:55;;;;;;;36.35;15.48;;;;;;;;;;4965847;28;20052;-78
2021/08/25 07:52:21;;;;;;;52.97;15.68;;;;;;;;;;4966034;28;20026;-79
2021/08/25 07:54:46;;;;;;;36.53;15.65;;;;;;;;;;4967924;28;20031;-79
2021/08/25 07:57:11;;;;;;;38.20;14.82;;;;;;;;;;4951076;28;20507;-78
2021/08/25 07:59:37;;;;;;;34.38;14.60;;;;;;;;;;4963964;28;20027;-79
2021/08/25 08:02:03;;;;;;;37.50;15.90;;;;;;;;;;4970777;28;20117;-79
2021/08/25 08:04:28;;;;;;;37.42;15.00;;;;;;;;;;4948605;28;20026;-79
2021/08/25 08:06:54;;;;;;;34.90;14.15;;;;;;;;;;4965363;28;20028;-78
2021/08/25 08:09:19;;;;;;;35.38;15.45;;;;;;;;;;4968811;28;20142;-79
2021/08/25 08:11:46;;;;;;;39.65;15.98;;;;;;;;;;4959424;28;20019;-77
2021/08/25 08:14:12;;;;;;;32.67;14.80;;;;;;;;;;4960251;28;20047;-77
2021/08/25 08:16:39;;;;;;;34.08;14.90;;;;;;;;;;4977440;28;20031;-77
2021/08/25 08:19:17;;;;;;;33.28;13.50;;;;;;;;;;4966541;28;20067;-77
2021/08/25 08:21:43;;;;;;;30.95;13.35;;;;;;;;;;4957660;28;20027;-77
2021/08/25 08:24:09;;;;;;;31.55;14.50;;;;;;;;;;4965938;28;20133;-77
2021/08/25 08:26:34;;;;;;;27.38;12.55;;;;;;;;;;4964693;28;20041;-77
2021/08/25 08:29:00;;;;;;;33.97;15.07;;;;;;;;;;4963503;28;20030;-78
2021/08/25 08:31:28;;;;;;;29.40;14.13;;;;;;;;;;4967711;28;20080;-77
2021/08/25 08:33:54;;;;;;;23.77;13.57;;;;;;;;;;4980657;28;20042;-77
2021/08/25 08:36:20;;;;;;;26.92;13.50;;;;;;;;;;4965346;28;20030;-77
2021/08/25 08:38:46;;;;;;;28.25;14.25;;;;;;;;;;4964837;28;20105;-77
2021/08/25 08:41:11;;;;;;;28.67;15.18;;;;;;;;;;4964927;28;20019;-79
2021/08/25 08:43:49;;;;;;;32.65;14.32;;;;;;;;;;4968001;28;20039;-77
2021/08/25 08:46:16;;;;;;;24.98;13.90;;;;;;;;;;4962948;28;20042;-78
2021/08/25 08:48:43;;;;;;;25.75;13.68;;;;;;;;;;4975875;28;20041;-78
2021/08/25 08:51:10;;;;;;;27.73;14.57;;;;;;;;;;4954141;28;20122;-78
2021/08/25 08:53:36;;;;;;;27.13;13.50;;;;;;;;;;4965816;28;20068;-78
2021/08/25 08:56:01;;;;;;;22.52;13.05;;;;;;;;;;4970211;28;20472;-77
2021/08/25 08:58:27;;;;;;;26.23;12.73;;;;;;;;;;4966002;28;20033;-77
2021/08/25 09:00:52;;;;;;;24.05;12.10;;;;;;;;;;4967311;28;20647;-77
2021/08/25 09:03:23;;;;;;;20.98;11.07;;;;;;;;;;4979438;28;20145;-77
2021/08/25 09:05:59;;;;;;;25.25;11.38;;;;;;;;;;4965622;28;20390;-77
2021/08/25 09:08:27;;;;;;;14.63;9.52;;;;;;;;;;4969401;28;20090;-77
2021/08/25 09:11:19;;;;;;;21.35;9.77;;;;;;;;;;4967283;28;20035;-77
2021/08/25 09:13:48;;;;;;;16.65;9.35;;;;;;;;;;4961702;28;20041;-77
2021/08/25 09:16:34;;;;;;;22.38;11.18;;;;;;;;;;4966236;28;20039;-77
2021/08/25 09:19:00;;;;;;;19.08;11.43;;;;;;;;;;4967217;28;20094;-77
2021/08/25 09:21:33;;;;;;;18.95;11.57;;;;;;;;;;4970379;28;20053;-77
2021/08/25 09:23:58;;;;;;;23.88;12.85;;;;;;;;;;4962967;28;20098;-78
2021/08/25 09:26:24;;;;;;;21.30;10.85;;;;;;;;;;4969942;28;20027;-78
2021/08/25 09:28:51;;;;;;;20.23;11.30;;;;;;;;;;4970653;28;20729;-78
2021/08/25 09:31:17;;;;;;;18.33;10.27;;;;;;;;;;4965050;28;20484;-77
2021/08/25 09:33:45;;;;;;;18.33;9.95;;;;;;;;;;4966709;28;20034;-78
2021/08/25 09:36:15;;;;;;;20.50;10.52;;;;;;;;;;4972121;28;20042;-78
2021/08/25 09:38:54;;;;;;;21.00;10.60;;;;;;;;;;4967031;28;20393;-78
2021/08/25 09:41:20;;;;;;;15.40;9.15;;;;;;;;;;4972693;28;20234;-78
2021/08/25 09:43:48;;;;;;;18.38;9.07;;;;;;;;;;4946938;28;20142;-78
2021/08/25 09:46:18;;;;;;;15.20;8.05;;;;;;;;;;4979903;28;20039;-78
2021/08/25 09:48:47;;;;;;;19.20;8.52;;;;;;;;;;4969586;28;20144;-78
2021/08/25 09:51:15;;;;;;;17.73;9.35;;;;;;;;;;4963424;28;20035;-78
2021/08/25 09:53:43;;;;;;;20.00;8.10;;;;;;;;;;4961464;28;20035;-78
2021/08/25 09:56:39;;;;;;;17.00;8.27;;;;;;;;;;4967108;28;20342;-78
2021/08/25 09:59:06;;;;;;;12.57;8.30;;;;;;;;;;4946983;28;20042;-78
2021/08/25 10:01:32;;;;;;;17.98;7.47;;;;;;;;;;4963606;28;20077;-78
2021/08/25 10:03:58;;;;;;;12.30;6.63;;;;;;;;;;4960325;28;20047;-78
2021/08/25 10:06:26;;;;;;;13.77;6.13;;;;;;;;;;4940594;28;20714;-78
2021/08/25 10:08:52;;;;;;;11.98;5.53;;;;;;;;;;4959546;28;20030;-78
2021/08/25 10:11:22;;;;;;;14.52;5.47;;;;;;;;;;4964151;28;20095;-78
2021/08/25 10:13:48;;;;;;;11.85;6.13;;;;;;;;;;4970838;28;20030;-78
2021/08/25 10:16:43;;;;;;;11.45;5.50;;;;;;;;;;4965053;28;20404;-79
2021/08/25 10:19:26;;;;;;;9.57;4.40;;;;;;;;;;4964304;28;20033;-78
2021/08/25 10:22:00;;;;;;;11.43;5.00;;;;;;;;;;4963160;28;20030;-78
2021/08/25 10:24:26;;;;;;;9.30;5.32;;;;;;;;;;4959102;28;20058;-78
2021/08/25 10:26:57;;;;;;;13.98;5.47;;;;;;;;;;4958171;28;20042;-78
2021/08/25 10:29:23;;;;;;;11.65;5.32;;;;;;;;;;4960811;28;20034;-78
2021/08/25 10:31:48;;;;;;;8.88;4.78;;;;;;;;;;4964919;28;20035;-78
2021/08/25 10:34:22;;;;;;;10.85;6.07;;;;;;;;;;4963278;28;20026;-78
2021/08/25 10:36:52;;;;;;;9.85;6.05;;;;;;;;;;4971719;28;20034;-78
2021/08/25 10:39:32;;;;;;;14.77;5.47;;;;;;;;;;4960562;28;20065;-78
2021/08/25 10:41:59;;;;;;;11.63;5.50;;;;;;;;;;4960836;28;20731;-78
2021/08/25 10:44:37;;;;;;;11.27;4.90;;;;;;;;;;4967964;28;20577;-78
2021/08/25 10:47:06;;;;;;;11.25;5.78;;;;;;;;;;4963672;28;20111;-78
2021/08/25 10:49:40;;;;;;;9.27;4.78;;;;;;;;;;4965189;28;20052;-78
2021/08/25 10:52:15;;;;;;;10.57;5.18;;;;;;;;;;4962157;28;20047;-79
2021/08/25 10:54:42;;;;;;;12.07;5.82;;;;;;;;;;4965954;28;20034;-78
2021/08/25 10:57:12;;;;;;;12.43;5.88;;;;;;;;;;4969820;28;20035;-78
2021/08/25 10:59:39;;;;;;;15.25;6.50;;;;;;;;;;4963461;28;20030;-77
2021/08/25 11:02:04;;;;;;;8.20;5.25;;;;;;;;;;4984855;28;20166;-77
2021/08/25 11:04:30;;;;;;;14.73;5.35;;;;;;;;;;4973943;28;20886;-77
2021/08/25 11:07:05;;;;;;;14.35;5.97;;;;;;;;;;4955880;28;20034;-77
2021/08/25 11:09:35;;;;;;;13.85;5.78;;;;;;;;;;4960345;28;20046;-77
2021/08/25 11:12:12;;;;;;;10.73;5.78;;;;;;;;;;4964969;28;20500;-78
2021/08/25 11:14:40;;;;;;;10.45;5.68;;;;;;;;;;4962341;28;20033;-77
2021/08/25 11:17:28;;;;;;;15.50;4.95;;;;;;;;;;4958297;28;20050;-78
2021/08/25 11:19:56;;;;;;;11.27;4.72;;;;;;;;;;4965678;28;20026;-78
2021/08/25 11:22:31;;;;;;;11.88;5.13;;;;;;;;;;4962308;28;20097;-78
2021/08/25 11:25:09;;;;;;;9.18;5.28;;;;;;;;;;4964007;28;20046;-78
2021/08/25 11:27:38;;;;;;;7.82;5.15;;;;;;;;;;4966211;28;20563;-78
2021/08/25 11:30:04;;;;;;;14.43;5.20;;;;;;;;;;4966572;28;20034;-76
2021/08/25 11:32:29;;;;;;;10.35;4.80;;;;;;;;;;4966944;28;20511;-76
2021/08/25 11:34:55;;;;;;;10.25;5.57;;;;;;;;;;4966204;28;20037;-76
2021/08/25 11:37:21;;;;;;;15.93;5.57;;;;;;;;;;4958724;28;20748;-76
2021/08/25 11:39:57;;;;;;;8.95;5.60;;;;;;;;;;4964751;28;20035;-76
2021/08/25 11:42:31;;;;;;;10.55;4.72;;;;;;;;;;4962597;28;20027;-76
2021/08/25 11:44:57;;;;;;;10.88;4.85;;;;;;;;;;4959689;28;20030;-76
2021/08/25 11:47:23;;;;;;;11.95;6.13;;;;;;;;;;4964340;28;20034;-78
2021/08/25 11:50:07;;;;;;;9.30;5.55;;;;;;;;;;4947017;28;20039;-76
2021/08/25 11:52:34;;;;;;;9.90;5.50;;;;;;;;;;4959056;28;20032;-77
2021/08/25 11:55:04;;;;;;;8.40;4.90;;;;;;;;;;4962206;28;20022;-76
2021/08/25 11:57:42;;;;;;;9.40;5.22;;;;;;;;;;4962797;28;20535;-77
2021/08/25 12:00:09;;;;;;;8.93;5.20;;;;;;;;;;4968389;28;20033;-75
2021/08/25 12:03:00;;;;;;;8.45;4.65;;;;;;;;;;4969603;28;20026;-76
2021/08/25 12:05:32;;;;;;;7.15;4.80;;;;;;;;;;4964051;28;20109;-77
2021/08/25 12:08:02;;;;;;;14.15;5.50;;;;;;;;;;4962466;28;20720;-76
2021/08/25 12:10:27;;;;;;;8.23;4.45;;;;;;;;;;4973761;28;20022;-75
2021/08/25 12:12:53;;;;;;;9.55;5.68;;;;;;;;;;4960457;28;20038;-76
2021/08/25 12:15:18;;;;;;;9.57;5.20;;;;;;;;;;4962364;28;20038;-76
2021/08/25 12:17:57;;;;;;;7.95;5.07;;;;;;;;;;4967036;28;20115;-76
2021/08/25 12:20:36;;;;;;;10.10;5.25;;;;;;;;;;4966610;28;20023;-77
2021/08/25 12:23:06;;;;;;;9.02;4.90;;;;;;;;;;4962478;28;20393;-77
2021/08/25 12:25:42;;;;;;;9.80;4.93;;;;;;;;;;4968454;28;20763;-76
2021/08/25 12:28:13;;;;;;;7.95;5.20;;;;;;;;;;4957899;28;20481;-76
2021/08/25 12:30:39;;;;;;;9.35;4.80;;;;;;;;;;4968973;28;20058;-77
2021/08/25 12:33:06;;;;;;;6.90;4.38;;;;;;;;;;4966978;28;20080;-76
2021/08/25 12:35:33;;;;;;;7.70;4.72;;;;;;;;;;4959589;28;20034;-78
2021/08/25 12:37:58;;;;;;;6.45;4.35;;;;;;;;;;4981287;28;20071;-77
2021/08/25 12:40:24;;;;;;;8.90;4.68;;;;;;;;;;4967728;28;20049;-78
2021/08/25 12:42:53;;;;;;;7.32;4.70;;;;;;;;;;4966391;28;20034;-78
2021/08/25 12:45:20;;;;;;;8.20;4.65;;;;;;;;;;4962715;28;20702;-79
2021/08/25 12:47:47;;;;;;;7.05;4.50;;;;;;;;;;4962414;28;20033;-79
2021/08/25 12:50:13;;;;;;;8.88;4.18;;;;;;;;;;4960950;28;20031;-76
2021/08/25 12:52:39;;;;;;;6.43;4.72;;;;;;;;;;4959132;28;20035;-79
2021/08/25 12:55:08;;;;;;;8.90;5.35;;;;;;;;;;4961681;28;20027;-76
2021/08/25 12:57:33;;;;;;;8.52;5.40;;;;;;;;;;4964491;28;20098;-76
2021/08/25 12:59:59;;;;;;;7.60;5.32;;;;;;;;;;4962729;28;20030;-76
2021/08/25 13:02:24;;;;;;;13.95;5.20;;;;;;;;;;4959783;28;20118;-77
2021/08/25 13:04:50;;;;;;;10.00;5.47;;;;;;;;;;4968329;28;20022;-78
2021/08/25 13:07:25;;;;;;;9.80;4.97;;;;;;;;;;4951238;28;20093;-76
2021/08/25 13:09:51;;;;;;;9.50;5.53;;;;;;;;;;4961715;28;20069;-77
2021/08/25 13:12:20;;;;;;;10.10;6.10;;;;;;;;;;4947091;28;20050;-76
2021/08/25 13:14:45;;;;;;;11.60;6.22;;;;;;;;;;4965436;28;20058;-77
2021/08/25 13:17:10;;;;;;;8.55;5.97;;;;;;;;;;4969577;28;20073;-78
2021/08/25 13:19:36;;;;;;;10.15;5.80;;;;;;;;;;4967743;28;20035;-77
2021/08/25 13:22:02;;;;;;;9.07;6.80;;;;;;;;;;4959763;28;20114;-77
2021/08/25 13:24:27;;;;;;;11.38;6.75;;;;;;;;;;4971226;28;20046;-77
2021/08/25 13:26:52;;;;;;;10.95;6.68;;;;;;;;;;4973448;28;20030;-77
2021/08/25 13:29:18;;;;;;;9.48;7.03;;;;;;;;;;4963302;28;20571;-80
2021/08/25 13:31:43;;;;;;;11.18;6.90;;;;;;;;;;4951374;28;20122;-78
2021/08/25 13:34:09;;;;;;;13.32;8.32;;;;;;;;;;4961843;28;20496;-77
2021/08/25 13:36:34;;;;;;;10.57;7.68;;;;;;;;;;4979241;28;20388;-77
2021/08/25 13:39:00;;;;;;;12.43;8.77;;;;;;;;;;4962532;28;20093;-77
2021/08/25 13:41:25;;;;;;;13.88;9.43;;;;;;;;;;4964257;28;20042;-77
2021/08/25 13:43:51;;;;;;;17.95;8.82;;;;;;;;;;4964747;28;20093;-81
2021/08/25 13:46:16;;;;;;;16.17;8.80;;;;;;;;;;4965827;28;20045;-78
2021/08/25 13:48:42;;;;;;;8.70;6.38;;;;;;;;;;4966109;28;20495;-77
2021/08/25 13:51:09;;;;;;;16.42;8.45;;;;;;;;;;4952841;28;20031;-77
2021/08/25 13:53:34;;;;;;;12.73;7.82;;;;;;;;;;4968522;28;20631;-77
2021/08/25 13:56:00;;;;;;;12.20;7.57;;;;;;;;;;4970952;28;20045;-76
2021/08/25 13:58:25;;;;;;;11.77;7.43;;;;;;;;;;4980828;28;20500;-77
2021/08/25 14:00:51;;;;;;;13.30;7.07;;;;;;;;;;4971122;28;20023;-76
2021/08/25 14:03:16;;;;;;;12.05;6.80;;;;;;;;;;4972452;28;20022;-78
2021/08/25 14:05:42;;;;;;;11.40;7.68;;;;;;;;;;4965600;28;20696;-77
2021/08/25 14:08:08;;;;;;;11.07;8.30;;;;;;;;;;4963105;28;20073;-77
2021/08/25 14:10:33;;;;;;;10.57;8.25;;;;;;;;;;4960679;28;20046;-78
2021/08/25 14:12:59;;;;;;;10.05;7.63;;;;;;;;;;4965199;28;20034;-77
2021/08/25 14:15:26;;;;;;;14.30;7.28;;;;;;;;;;4968811;28;20030;-77
2021/08/25 14:17:51;;;;;;;9.18;6.97;;;;;;;;;;4962781;28;20026;-77
2021/08/25 14:20:17;;;;;;;10.88;7.53;;;;;;;;;;4965867;28;20031;-77
2021/08/25 14:22:42;;;;;;;12.77;7.03;;;;;;;;;;4972558;28;20038;-77
2021/08/25 14:25:09;;;;;;;12.18;7.25;;;;;;;;;;4963115;28;20729;-77